createdAt,value
2018-07-19T00:01:28.941Z,17.90
2018-07-19T00:03:57.490Z,17.90
2018-07-19T00:06:26.136Z,17.80
2018-07-19T00:08:55.007Z,17.80
2018-07-19T00:11:23.613Z,17.80
2018-07-19T00:13:52.142Z,17.70
2018-07-19T00:16:20.710Z,17.60
2018-07-19T00:18:49.239Z,17.50
2018-07-19T00:21:17.899Z,17.50
2018-07-19T00:23:46.599Z,17.40
2018-07-19T00:26:15.273Z,17.30
2018-07-19T00:28:43.766Z,17.30
2018-07-19T00:31:12.250Z,17.20
2018-07-19T00:33:40.906Z,17.10
2018-07-19T00:36:09.378Z,17.10
2018-07-19T00:38:37.924Z,17.00
2018-07-19T00:41:07.238Z,17.00
2018-07-19T00:43:35.856Z,16.90
2018-07-19T00:46:04.553Z,16.90
2018-07-19T00:48:33.090Z,16.80
2018-07-19T00:51:01.739Z,16.90
2018-07-19T00:53:30.223Z,16.80
2018-07-19T00:55:58.874Z,16.80
2018-07-19T00:58:27.362Z,16.70
2018-07-19T01:00:55.834Z,16.70
2018-07-19T01:03:24.514Z,16.70
2018-07-19T01:05:53.018Z,16.70
2018-07-19T01:08:21.691Z,16.70
2018-07-19T01:10:50.199Z,16.60
2018-07-19T01:13:18.814Z,16.60
2018-07-19T01:15:47.341Z,16.50
2018-07-19T01:18:15.958Z,16.60
2018-07-19T01:20:44.532Z,16.60
2018-07-19T01:23:13.098Z,16.60
2018-07-19T01:25:41.597Z,16.40
2018-07-19T01:28:10.104Z,16.40
2018-07-19T01:30:38.778Z,16.30
2018-07-19T01:33:07.306Z,16.30
2018-07-19T01:35:35.894Z,16.20
2018-07-19T01:38:04.407Z,16.20
2018-07-19T01:40:33.102Z,16.20
2018-07-19T01:43:01.584Z,16.10
2018-07-19T01:45:30.259Z,16.10
2018-07-19T01:47:58.766Z,16.10
2018-07-19T01:50:27.255Z,16.00
2018-07-19T01:52:55.830Z,16.00
2018-07-19T01:55:24.374Z,16.00
2018-07-19T01:57:52.954Z,16.00
2018-07-19T02:00:21.521Z,16.00
2018-07-19T02:02:50.271Z,16.00
2018-07-19T02:05:18.728Z,15.90
2018-07-19T02:07:47.286Z,15.90
2018-07-19T02:10:15.814Z,15.90
2018-07-19T02:12:44.430Z,15.90
2018-07-19T02:15:12.895Z,15.90
2018-07-19T02:17:41.346Z,15.80
2018-07-19T02:20:09.855Z,15.70
2018-07-19T02:22:38.322Z,15.80
2018-07-19T02:25:06.969Z,15.80
2018-07-19T02:27:35.410Z,15.80
2018-07-19T02:30:04.084Z,15.80
2018-07-19T02:32:32.544Z,15.80
2018-07-19T02:35:01.166Z,15.70
2018-07-19T02:37:29.706Z,15.60
2018-07-19T02:39:58.230Z,15.60
2018-07-19T02:42:26.810Z,15.50
2018-07-19T02:44:55.296Z,15.40
2018-07-19T02:47:23.992Z,15.40
2018-07-19T02:49:52.589Z,15.40
2018-07-19T02:52:21.108Z,15.40
2018-07-19T02:54:49.691Z,15.40
2018-07-19T02:57:18.213Z,15.40
2018-07-19T02:59:46.796Z,15.30
2018-07-19T03:02:15.431Z,15.40
2018-07-19T03:04:43.894Z,15.30
2018-07-19T03:07:12.528Z,15.30
2018-07-19T03:09:41.117Z,15.30
2018-07-19T03:12:09.811Z,15.30
2018-07-19T03:14:38.567Z,15.30
2018-07-19T03:17:07.134Z,15.30
2018-07-19T03:19:35.706Z,15.30
2018-07-19T03:22:04.223Z,15.20
2018-07-19T03:24:32.914Z,15.20
2018-07-19T03:27:01.403Z,15.20
2018-07-19T03:29:30.018Z,15.20
2018-07-19T03:31:58.498Z,15.20
2018-07-19T03:34:27.046Z,15.20
2018-07-19T03:36:55.715Z,15.20
2018-07-19T03:39:24.221Z,15.20
2018-07-19T03:41:52.869Z,15.20
2018-07-19T03:44:21.678Z,15.20
2018-07-19T03:46:50.277Z,15.20
2018-07-19T03:49:18.826Z,15.10
2018-07-19T03:51:47.430Z,15.10
2018-07-19T03:54:16.047Z,15.00
2018-07-19T03:56:44.541Z,15.00
2018-07-19T03:59:13.015Z,15.00
2018-07-19T04:01:41.498Z,15.00
2018-07-19T04:04:09.984Z,14.90
2018-07-19T04:06:38.442Z,15.00
2018-07-19T04:11:35.624Z,15.00
2018-07-19T04:14:04.782Z,15.10
2018-07-19T04:16:33.469Z,15.10
2018-07-19T04:19:01.925Z,15.10
2018-07-19T04:21:30.536Z,15.10
2018-07-19T04:23:59.066Z,15.10
2018-07-19T04:26:27.527Z,15.10
2018-07-19T04:28:56.246Z,15.10
2018-07-19T04:31:24.820Z,15.20
2018-07-19T04:33:53.339Z,15.20
2018-07-19T04:36:21.878Z,15.20
2018-07-19T04:38:50.431Z,15.30
2018-07-19T04:41:19.059Z,15.30
2018-07-19T04:43:47.525Z,15.30
2018-07-19T04:46:16.143Z,15.40
2018-07-19T04:48:44.679Z,15.40
2018-07-19T04:51:13.302Z,15.50
2018-07-19T04:53:41.878Z,15.50
2018-07-19T04:56:10.466Z,15.50
2018-07-19T04:58:38.945Z,15.60
2018-07-19T05:01:07.655Z,15.60
2018-07-19T05:03:36.127Z,15.60
2018-07-19T05:06:04.813Z,15.60
2018-07-19T05:08:33.629Z,15.60
2018-07-19T05:11:02.310Z,15.60
2018-07-19T05:13:30.882Z,15.70
2018-07-19T05:15:59.515Z,15.80
2018-07-19T05:18:28.111Z,15.90
2018-07-19T05:20:56.802Z,16.00
2018-07-19T05:23:25.422Z,16.10
2018-07-19T05:25:53.891Z,16.10
2018-07-19T05:28:22.424Z,16.20
2018-07-19T05:30:50.988Z,16.20
2018-07-19T05:33:19.594Z,16.30
2018-07-19T05:35:48.273Z,16.30
2018-07-19T05:38:16.883Z,16.40
2018-07-19T05:40:45.693Z,16.40
2018-07-19T05:43:14.254Z,16.50
2018-07-19T05:45:42.775Z,16.50
2018-07-19T05:48:11.343Z,16.60
2018-07-19T05:50:40.162Z,16.60
2018-07-19T05:53:08.701Z,16.60
2018-07-19T05:55:37.352Z,16.70
2018-07-19T05:58:06.107Z,16.70
2018-07-19T06:00:34.619Z,16.70
2018-07-19T06:03:03.205Z,16.80
2018-07-19T06:05:31.927Z,16.80
2018-07-19T06:08:00.682Z,16.90
2018-07-19T06:10:29.607Z,17.00
2018-07-19T06:12:58.137Z,17.00
2018-07-19T06:15:26.661Z,17.10
2018-07-19T06:17:55.256Z,17.10
2018-07-19T06:20:23.707Z,17.10
2018-07-19T06:22:52.314Z,17.20
2018-07-19T06:25:20.877Z,17.30
2018-07-19T06:27:49.508Z,17.30
2018-07-19T06:30:18.042Z,17.40
2018-07-19T06:32:46.741Z,17.40
2018-07-19T06:35:15.510Z,17.40
2018-07-19T06:37:44.056Z,17.50
2018-07-19T06:40:12.737Z,17.60
2018-07-19T06:42:41.341Z,17.60
2018-07-19T06:45:09.848Z,17.70
2018-07-19T06:47:38.321Z,17.80
2018-07-19T06:50:06.947Z,17.90
2018-07-19T06:52:35.438Z,18.00
2018-07-19T06:55:04.322Z,18.10
2018-07-19T06:57:33.050Z,18.20
2018-07-19T07:00:01.515Z,18.30
2018-07-19T07:02:30.082Z,18.50
2018-07-19T07:04:58.612Z,18.60
2018-07-19T07:07:27.187Z,18.70
2018-07-19T07:09:55.721Z,18.80
2018-07-19T07:12:24.287Z,18.90
2018-07-19T07:14:52.796Z,19.00
2018-07-19T07:17:21.481Z,19.00
2018-07-19T07:19:49.929Z,19.20
2018-07-19T07:22:18.731Z,19.30
2018-07-19T07:24:47.249Z,19.30
2018-07-19T07:27:16.098Z,19.50
2018-07-19T07:29:44.567Z,19.60
2018-07-19T07:32:13.195Z,19.60
2018-07-19T07:34:42.048Z,19.80
2018-07-19T07:37:10.743Z,19.80
2018-07-19T07:39:39.255Z,19.90
2018-07-19T07:42:07.906Z,20.00
2018-07-19T07:44:36.506Z,20.10
2018-07-19T07:47:05.155Z,20.10
2018-07-19T07:49:33.815Z,20.20
2018-07-19T07:52:02.294Z,20.30
2018-07-19T07:54:31.086Z,20.40
2018-07-19T07:56:59.633Z,20.40
2018-07-19T07:59:28.101Z,20.50
2018-07-19T08:01:56.680Z,20.60
2018-07-19T08:04:25.166Z,20.70
2018-07-19T08:06:53.739Z,20.70
2018-07-19T08:09:22.605Z,20.80
2018-07-19T08:11:51.290Z,20.90
2018-07-19T08:14:20.199Z,21.00
2018-07-19T08:16:48.751Z,21.10
2018-07-19T08:19:17.260Z,21.10
2018-07-19T08:21:46.000Z,21.10
2018-07-19T08:24:14.943Z,21.20
2018-07-19T08:26:43.407Z,21.20
2018-07-19T08:29:11.866Z,21.40
2018-07-19T08:31:40.577Z,21.40
2018-07-19T08:34:09.348Z,21.60
2018-07-19T08:36:37.954Z,21.70
2018-07-19T08:41:36.347Z,22.00
2018-07-19T08:44:05.159Z,22.00
2018-07-19T08:46:33.742Z,22.00
2018-07-19T08:49:02.492Z,22.00
2018-07-19T08:51:31.427Z,22.00
2018-07-19T08:54:00.203Z,22.00
2018-07-19T08:56:28.846Z,22.10
2018-07-19T08:58:57.585Z,22.20
2018-07-19T09:01:26.161Z,22.30
2018-07-19T09:03:54.758Z,22.30
2018-07-19T09:06:23.431Z,22.40
2018-07-19T09:08:51.969Z,22.40
2018-07-19T09:11:20.485Z,22.50
2018-07-19T09:13:48.994Z,22.50
2018-07-19T09:16:17.579Z,22.40
2018-07-19T09:18:46.054Z,22.40
2018-07-19T09:21:14.725Z,22.50
2018-07-19T09:23:43.317Z,22.50
2018-07-19T09:26:12.299Z,22.60
2018-07-19T09:28:40.826Z,22.60
2018-07-19T09:31:09.536Z,22.60
2018-07-19T09:36:06.430Z,22.50
2018-07-19T09:38:35.352Z,22.60
2018-07-19T09:41:03.915Z,22.60
2018-07-19T09:43:32.496Z,22.70
2018-07-19T09:46:01.331Z,22.90
2018-07-19T09:48:29.951Z,23.10
2018-07-19T09:50:58.701Z,23.10
2018-07-19T09:53:27.314Z,23.20
2018-07-19T09:55:56.030Z,23.10
2018-07-19T09:58:24.551Z,23.00
2018-07-19T10:00:58.394Z,23.20
2018-07-19T10:03:26.900Z,23.10
2018-07-19T10:05:55.644Z,23.20
2018-07-19T10:08:24.305Z,23.10
2018-07-19T10:10:52.929Z,23.20
2018-07-19T10:13:21.427Z,23.10
2018-07-19T10:15:49.924Z,23.10
2018-07-19T10:18:18.523Z,23.10
2018-07-19T10:20:47.064Z,23.20
2018-07-19T10:23:15.787Z,23.20
2018-07-19T10:25:44.294Z,23.10
2018-07-19T10:28:12.867Z,23.20
2018-07-19T10:30:41.460Z,23.30
2018-07-19T10:33:10.033Z,23.20
2018-07-19T10:35:38.666Z,23.20
2018-07-19T10:38:07.289Z,23.40
2018-07-19T10:40:36.012Z,23.40
2018-07-19T10:43:04.707Z,23.50
2018-07-19T10:45:33.259Z,23.50
2018-07-19T10:48:01.773Z,23.40
2018-07-19T10:50:30.248Z,23.40
2018-07-19T10:52:58.866Z,23.30
2018-07-19T10:55:27.579Z,23.10
2018-07-19T10:57:56.108Z,22.90
2018-07-19T11:00:24.581Z,22.80
2018-07-19T11:02:53.152Z,22.60
2018-07-19T11:05:21.819Z,22.50
2018-07-19T11:07:50.330Z,22.60
2018-07-19T11:10:18.884Z,22.80
2018-07-19T11:15:15.628Z,23.00
2018-07-19T11:20:12.515Z,23.20
2018-07-19T11:22:41.288Z,23.30
2018-07-19T11:25:09.862Z,23.40
2018-07-19T11:27:38.491Z,23.30
2018-07-19T11:30:07.180Z,23.40
2018-07-19T11:32:35.683Z,23.40
2018-07-19T11:35:04.228Z,23.50
2018-07-19T11:37:32.883Z,23.60
2018-07-19T11:40:01.615Z,23.70
2018-07-19T11:42:30.111Z,24.00
2018-07-19T11:44:58.719Z,24.20
2018-07-19T11:47:27.454Z,24.20
2018-07-19T11:49:56.009Z,24.30
2018-07-19T11:52:24.873Z,24.30
2018-07-19T11:54:53.410Z,24.20
2018-07-19T11:57:21.950Z,24.00
2018-07-19T11:59:50.606Z,24.00
2018-07-19T12:02:19.117Z,24.00
2018-07-19T12:04:47.923Z,23.90
2018-07-19T12:07:16.667Z,23.90
2018-07-19T12:09:45.391Z,23.70
2018-07-19T12:12:14.440Z,23.70
2018-07-19T12:14:43.036Z,23.70
2018-07-19T12:17:11.532Z,23.80
2018-07-19T12:19:40.084Z,23.70
2018-07-19T12:22:08.651Z,23.80
2018-07-19T12:24:37.372Z,23.70
2018-07-19T12:27:07.131Z,23.50
2018-07-19T12:29:35.732Z,23.50
2018-07-19T12:32:05.258Z,23.50
2018-07-19T12:34:34.054Z,23.60
2018-07-19T12:39:31.182Z,23.70
2018-07-19T12:41:59.794Z,23.90
2018-07-19T12:44:28.287Z,24.10
2018-07-19T12:46:56.854Z,24.20
2018-07-19T12:49:25.997Z,24.20
2018-07-19T12:51:54.600Z,24.20
2018-07-19T12:54:23.200Z,24.40
2018-07-19T12:56:51.925Z,24.40
2018-07-19T12:59:21.379Z,24.40
2018-07-19T13:01:49.902Z,24.30
2018-07-19T13:04:18.384Z,24.30
2018-07-19T13:06:47.116Z,24.20
2018-07-19T13:09:15.602Z,24.20
2018-07-19T13:11:44.404Z,24.10
2018-07-19T13:14:13.764Z,24.10
2018-07-19T13:16:42.519Z,24.00
2018-07-19T13:19:11.043Z,23.90
2018-07-19T13:21:39.647Z,23.90
2018-07-19T13:24:08.589Z,23.90
2018-07-19T13:26:37.472Z,24.20
2018-07-19T13:29:06.123Z,24.50
2018-07-19T13:31:34.742Z,24.70
2018-07-19T13:34:03.570Z,24.80
2018-07-19T13:36:32.412Z,24.60
2018-07-19T13:39:01.110Z,24.60
2018-07-19T13:41:29.829Z,24.60
2018-07-19T13:43:58.349Z,24.50
2018-07-19T13:46:26.987Z,24.30
2018-07-19T13:48:55.623Z,24.30
2018-07-19T13:51:24.440Z,24.30
2018-07-19T13:54:17.393Z,24.10
2018-07-19T13:56:46.350Z,24.00
2018-07-19T13:59:15.738Z,24.00
2018-07-19T14:01:44.567Z,24.10
2018-07-19T14:04:13.215Z,23.90
2018-07-19T14:06:41.984Z,23.90
2018-07-19T14:09:14.698Z,24.00
2018-07-19T14:11:43.328Z,24.00
2018-07-19T14:14:11.863Z,23.80
2018-07-19T14:16:40.350Z,23.90
2018-07-19T14:19:09.007Z,23.90
2018-07-19T14:21:37.498Z,23.80
2018-07-19T14:24:06.217Z,23.70
2018-07-19T14:26:34.678Z,23.60
2018-07-19T14:29:03.349Z,23.70
2018-07-19T14:31:32.072Z,23.70
2018-07-19T14:34:00.615Z,23.70
2018-07-19T14:36:29.089Z,23.50
2018-07-19T14:38:57.631Z,23.50
2018-07-19T14:41:26.096Z,23.40
2018-07-19T14:43:54.644Z,23.30
2018-07-19T14:46:23.547Z,23.30
2018-07-19T14:48:52.445Z,23.50
2018-07-19T14:51:21.077Z,23.40
2018-07-19T14:53:49.578Z,23.30
2018-07-19T14:56:18.122Z,23.50
2018-07-19T14:58:46.675Z,23.50
2018-07-19T15:01:15.350Z,23.50
2018-07-19T15:03:43.824Z,23.40
2018-07-19T15:06:12.367Z,23.30
2018-07-19T15:08:41.019Z,23.30
2018-07-19T15:13:38.196Z,23.40
2018-07-19T15:16:06.939Z,23.50
2018-07-19T15:18:35.379Z,23.60
2018-07-19T15:21:03.903Z,23.60
2018-07-19T15:23:32.394Z,23.70
2018-07-19T15:26:00.862Z,23.60
2018-07-19T15:28:29.528Z,23.60
2018-07-19T15:30:58.352Z,23.70
2018-07-19T15:33:26.995Z,23.70
2018-07-19T15:35:55.479Z,23.60
2018-07-19T15:38:24.128Z,23.60
2018-07-19T15:40:52.571Z,23.60
2018-07-19T15:43:21.286Z,23.60
2018-07-19T15:45:49.842Z,23.50
2018-07-19T15:48:18.881Z,23.60
2018-07-19T15:50:47.399Z,23.60
2018-07-19T15:53:15.904Z,23.70
2018-07-19T15:55:44.464Z,23.70
2018-07-19T15:58:13.196Z,23.60
2018-07-19T16:00:41.759Z,23.50
2018-07-19T16:03:10.468Z,23.30
2018-07-19T16:05:38.927Z,23.30
2018-07-19T16:08:07.525Z,23.20
2018-07-19T16:10:36.393Z,23.10
2018-07-19T16:13:05.288Z,23.10
2018-07-19T16:15:33.952Z,23.10
2018-07-19T16:18:02.427Z,23.30
2018-07-19T16:20:31.524Z,23.40
2018-07-19T16:22:59.944Z,23.40
2018-07-19T16:25:28.925Z,23.30
2018-07-19T16:27:57.480Z,23.20
2018-07-19T16:30:26.039Z,23.20
2018-07-19T16:32:54.509Z,23.30
2018-07-19T16:35:23.112Z,23.20
2018-07-19T16:37:52.056Z,23.20
2018-07-19T16:40:20.589Z,23.20
2018-07-19T16:42:49.813Z,23.30
2018-07-19T16:45:18.362Z,23.20
2018-07-19T16:47:46.910Z,23.30
2018-07-19T16:50:15.410Z,23.20
2018-07-19T16:52:44.096Z,23.40
2018-07-19T16:55:12.595Z,23.40
2018-07-19T16:57:41.280Z,23.50
2018-07-19T17:00:09.807Z,23.50
2018-07-19T17:02:38.359Z,23.50
2018-07-19T17:05:06.868Z,23.50
2018-07-19T17:07:35.567Z,23.50
2018-07-19T17:10:04.750Z,23.50
2018-07-19T17:12:33.258Z,23.50
2018-07-19T17:15:01.850Z,23.50
2018-07-19T17:17:30.470Z,23.50
2018-07-19T17:19:59.103Z,23.50
2018-07-19T17:22:27.726Z,23.50
2018-07-19T17:24:56.384Z,23.50
2018-07-19T17:27:25.044Z,23.30
2018-07-19T17:29:53.542Z,23.40
2018-07-19T17:32:22.206Z,23.30
2018-07-19T17:34:50.739Z,23.30
2018-07-19T17:37:19.687Z,23.10
2018-07-19T17:39:48.175Z,23.00
2018-07-19T17:42:16.700Z,22.90
2018-07-19T17:44:45.283Z,23.10
2018-07-19T17:47:13.840Z,23.00
2018-07-19T17:49:42.600Z,22.90
2018-07-19T17:52:11.342Z,22.80
2018-07-19T17:54:40.119Z,22.70
2018-07-19T17:57:08.906Z,22.70
2018-07-19T17:59:37.500Z,22.70
2018-07-19T18:02:06.025Z,22.70
2018-07-19T18:04:34.691Z,22.70
2018-07-19T18:07:03.254Z,22.60
2018-07-19T18:09:32.024Z,22.60
2018-07-19T18:12:00.706Z,22.50
2018-07-19T18:14:29.747Z,22.50
2018-07-19T18:16:58.419Z,22.50
2018-07-19T18:21:55.309Z,22.50
2018-07-19T18:24:23.987Z,22.50
2018-07-19T18:26:52.555Z,22.40
2018-07-19T18:29:21.241Z,22.40
2018-07-19T18:31:49.733Z,22.40
2018-07-19T18:34:18.370Z,22.40
2018-07-19T18:36:46.915Z,22.30
2018-07-19T18:39:15.452Z,22.30
2018-07-19T18:41:43.988Z,22.30
2018-07-19T18:44:12.616Z,22.30
2018-07-19T18:46:41.234Z,22.30
2018-07-19T18:49:09.735Z,22.30
2018-07-19T18:51:38.282Z,22.30
2018-07-19T18:54:07.080Z,22.30
2018-07-19T18:56:35.855Z,22.20
2018-07-19T18:59:04.466Z,22.20
2018-07-19T19:01:33.002Z,22.20
2018-07-19T19:06:30.163Z,22.20
2018-07-19T19:08:58.656Z,22.20
2018-07-19T19:11:27.276Z,22.10
2018-07-19T19:13:55.918Z,22.10
2018-07-19T19:16:24.883Z,22.00
2018-07-19T19:18:53.566Z,22.00
2018-07-19T19:21:22.194Z,22.00
2018-07-19T19:23:50.781Z,22.00
2018-07-19T19:26:19.568Z,21.90
2018-07-19T19:28:48.112Z,21.90
2018-07-19T19:31:16.682Z,21.90
2018-07-19T19:33:45.370Z,21.90
2018-07-19T19:36:13.866Z,21.80
2018-07-19T19:38:42.383Z,21.80
2018-07-19T19:41:11.140Z,21.80
2018-07-19T19:43:39.761Z,21.80
2018-07-19T19:46:08.519Z,21.70
2018-07-19T19:48:37.668Z,21.70
2018-07-19T19:51:07.575Z,21.70
2018-07-19T19:53:36.526Z,21.70
2018-07-19T19:56:05.294Z,21.70
2018-07-19T20:01:02.573Z,21.60
2018-07-19T20:03:31.199Z,21.60
2018-07-19T20:06:00.001Z,21.60
2018-07-19T20:08:28.605Z,21.60
2018-07-19T20:10:57.250Z,21.60
2018-07-19T20:13:25.903Z,21.60
2018-07-19T20:15:54.427Z,21.60
2018-07-19T20:18:23.085Z,21.50
2018-07-19T20:20:51.889Z,21.50
2018-07-19T20:23:20.568Z,21.50
2018-07-19T20:25:49.250Z,21.50
2018-07-19T20:28:17.929Z,21.50
2018-07-19T20:30:46.640Z,21.50
2018-07-19T20:33:15.468Z,21.40
2018-07-19T20:35:44.034Z,21.40
2018-07-19T20:38:12.743Z,21.40
2018-07-19T20:40:41.429Z,21.30
2018-07-19T20:43:09.939Z,21.30
2018-07-19T20:45:38.691Z,21.30
2018-07-19T20:48:07.424Z,21.30
2018-07-19T20:50:36.143Z,21.20
2018-07-19T20:53:04.664Z,21.20
2018-07-19T20:55:33.306Z,21.20
2018-07-19T20:58:01.988Z,21.10
2018-07-19T21:00:30.627Z,21.00
2018-07-19T21:02:59.290Z,21.00
2018-07-19T21:05:28.258Z,21.00
2018-07-19T21:07:56.842Z,20.90
2018-07-19T21:10:25.581Z,20.90
2018-07-19T21:12:54.427Z,20.90
2018-07-19T21:15:22.957Z,20.90
2018-07-19T21:17:51.688Z,20.80
2018-07-19T21:20:20.230Z,20.80
2018-07-19T21:22:48.839Z,20.80
2018-07-19T21:25:17.646Z,20.80
2018-07-19T21:27:46.232Z,20.70
2018-07-19T21:30:14.747Z,20.70
2018-07-19T21:32:43.356Z,20.60
2018-07-19T21:35:11.952Z,20.60
2018-07-19T21:37:40.760Z,20.70
2018-07-19T21:40:09.319Z,20.60
2018-07-19T21:42:37.919Z,20.60
2018-07-19T21:45:06.679Z,20.60
2018-07-19T21:47:35.403Z,20.60
2018-07-19T21:50:04.572Z,20.60
2018-07-19T21:52:33.310Z,20.60
2018-07-19T21:55:01.813Z,20.60
2018-07-19T21:57:30.571Z,20.60
2018-07-19T21:59:59.181Z,20.50
2018-07-19T22:02:27.757Z,20.50
2018-07-19T22:04:56.388Z,20.50
2018-07-19T22:07:24.922Z,20.40
2018-07-19T22:09:53.407Z,20.30
2018-07-19T22:12:22.144Z,20.30
2018-07-19T22:14:50.839Z,20.30
2018-07-19T22:17:19.519Z,20.30
2018-07-19T22:19:48.332Z,20.30
2018-07-19T22:22:16.956Z,20.30
2018-07-19T22:24:45.547Z,20.30
2018-07-19T22:27:14.251Z,20.30
2018-07-19T22:29:43.664Z,20.20
2018-07-19T22:32:12.226Z,20.20
2018-07-19T22:34:40.727Z,20.20
2018-07-19T22:37:09.346Z,20.20
2018-07-19T22:39:37.915Z,20.20
2018-07-19T22:42:06.587Z,20.20
2018-07-19T22:44:35.080Z,20.20
2018-07-19T22:47:03.623Z,20.20
2018-07-19T22:49:32.215Z,20.10
2018-07-19T22:52:00.755Z,20.10
2018-07-19T22:54:29.329Z,20.10
2018-07-19T22:56:57.827Z,20.10
2018-07-19T22:59:26.572Z,20.10
2018-07-19T23:01:55.320Z,20.10
2018-07-19T23:04:23.820Z,20.10
2018-07-19T23:06:52.374Z,20.00
2018-07-19T23:09:20.937Z,20.00
2018-07-19T23:11:49.540Z,20.00
2018-07-19T23:14:18.038Z,20.00
2018-07-19T23:16:46.707Z,20.00
2018-07-19T23:19:15.198Z,20.00
2018-07-19T23:21:43.875Z,20.00
2018-07-19T23:24:12.400Z,20.00
2018-07-19T23:26:40.893Z,20.00
2018-07-19T23:29:09.517Z,20.00
2018-07-19T23:31:38.060Z,20.00
2018-07-19T23:34:07.146Z,20.00
2018-07-19T23:36:40.147Z,20.10
2018-07-19T23:39:20.419Z,20.00
2018-07-19T23:42:28.704Z,20.00
2018-07-19T23:45:01.939Z,19.90
2018-07-19T23:47:33.263Z,19.90
2018-07-19T23:50:02.234Z,19.80
2018-07-19T23:52:30.889Z,19.70
2018-07-19T23:54:59.387Z,19.70
2018-07-19T23:57:27.870Z,19.60
2018-07-19T23:59:56.588Z,19.60
